Time;durP1;ratioP1;P1;durP2;ratioP2;P2;SDS_P1;SDS_P2;PMS_P1;PMS_P2;Temp;Humidity;BMP_temperature;BMP_pressure;BME280_temperature;BME280_humidity;BME280_pressure;Samples;Min_cycle;Max_cycle;Signal;HPM_P1;HPM_P2
2022/03/30 00:01:26;;;;;;;67.70;35.17;;;5.00;99.90;;;;;;4995375;28;20075;-83
2022/03/30 00:03:51;;;;;;;63.95;32.50;;;4.90;99.90;;;;;;4995023;28;20034;-82
2022/03/30 00:06:17;;;;;;;62.35;31.35;;;4.90;99.90;;;;;;4995195;28;20030;-82
2022/03/30 00:08:43;;;;;;;56.80;31.02;;;4.80;99.90;;;;;;4995197;28;20025;-82
2022/03/30 00:11:10;;;;;;;64.80;33.35;;;4.80;99.90;;;;;;4995254;28;20037;-83
2022/03/30 00:13:36;;;;;;;70.38;34.50;;;4.80;99.90;;;;;;4994946;28;20546;-83
2022/03/30 00:16:03;;;;;;;58.13;31.27;;;4.70;99.90;;;;;;4995002;28;20030;-81
2022/03/30 00:18:29;;;;;;;61.22;32.45;;;4.60;99.90;;;;;;4995201;28;20037;-82
2022/03/30 00:20:54;;;;;;;67.22;31.92;;;4.60;99.90;;;;;;4995075;28;20030;-82
2022/03/30 00:23:20;;;;;;;62.25;32.95;;;4.60;99.90;;;;;;4994547;28;20037;-82
2022/03/30 00:25:46;;;;;;;69.40;33.65;;;4.50;99.90;;;;;;4994414;28;20027;-83
2022/03/30 00:28:12;;;;;;;69.25;33.83;;;4.50;99.90;;;;;;4994675;28;20030;-82
2022/03/30 00:30:38;;;;;;;56.85;31.20;;;4.40;99.90;;;;;;4994640;28;20563;-83
2022/03/30 00:33:04;;;;;;;58.30;30.50;;;4.40;99.90;;;;;;4994755;28;20384;-82
2022/03/30 00:35:30;;;;;;;76.82;39.70;;;4.30;99.90;;;;;;4994872;28;20022;-82
2022/03/30 00:37:56;;;;;;;71.97;36.40;;;4.30;99.90;;;;;;4994789;28;20034;-82
2022/03/30 00:40:22;;;;;;;67.20;31.77;;;4.20;99.90;;;;;;4994542;28;20031;-83
2022/03/30 00:42:47;;;;;;;64.20;32.78;;;4.10;99.90;;;;;;4994577;28;20026;-82
2022/03/30 00:45:16;;;;;;;59.83;31.67;;;4.10;99.90;;;;;;4994299;28;20039;-83
2022/03/30 00:47:42;;;;;;;62.72;31.33;;;4.10;99.90;;;;;;4994334;28;20029;-82
2022/03/30 00:50:10;;;;;;;60.90;31.30;;;4.00;99.90;;;;;;4994330;28;20054;-82
2022/03/30 00:52:36;;;;;;;65.75;32.55;;;3.90;99.90;;;;;;4994262;28;20026;-83
2022/03/30 00:55:04;;;;;;;81.47;36.13;;;3.80;99.90;;;;;;5009432;28;20026;-83
2022/03/30 00:57:32;;;;;;;73.30;34.45;;;3.70;99.90;;;;;;4993854;28;20023;-82
2022/03/30 00:59:58;;;;;;;59.55;30.77;;;3.70;99.90;;;;;;4993094;28;20018;-83
2022/03/30 01:02:23;;;;;;;65.35;34.78;;;3.60;99.90;;;;;;4994224;28;20053;-83
2022/03/30 01:04:49;;;;;;;68.93;32.15;;;3.60;99.90;;;;;;4994290;28;20113;-83
2022/03/30 01:07:16;;;;;;;55.88;28.30;;;3.60;99.90;;;;;;4994332;28;20120;-83
2022/03/30 01:09:42;;;;;;;51.50;26.10;;;3.50;99.90;;;;;;4994288;28;20023;-83
2022/03/30 01:12:11;;;;;;;51.15;26.38;;;3.50;99.90;;;;;;4994050;28;20033;-82
2022/03/30 01:14:37;;;;;;;58.17;27.75;;;3.40;99.90;;;;;;4992593;28;20046;-82
2022/03/30 01:17:04;;;;;;;51.08;27.50;;;3.40;99.90;;;;;;4993953;28;20097;-81
2022/03/30 01:19:31;;;;;;;52.45;27.45;;;3.30;99.90;;;;;;4994253;28;20578;-82
2022/03/30 01:21:57;;;;;;;56.25;26.90;;;3.30;99.90;;;;;;5009014;28;20402;-82
2022/03/30 01:24:23;;;;;;;56.08;29.23;;;3.30;99.90;;;;;;4993758;28;20498;-82
2022/03/30 01:26:49;;;;;;;54.42;27.65;;;3.20;99.90;;;;;;4993861;28;20108;-82
2022/03/30 01:34:44;;;;;;;57.85;28.80;;;3.20;99.90;;;;;;4993860;28;20495;-82
2022/03/30 01:37:11;;;;;;;55.88;27.65;;;3.10;99.90;;;;;;4993948;28;20026;-83
2022/03/30 01:39:37;;;;;;;53.38;28.23;;;3.00;99.90;;;;;;4993891;28;20384;-82
2022/03/30 01:42:04;;;;;;;55.28;26.40;;;3.00;99.90;;;;;;4993731;28;20540;-82
2022/03/30 01:44:30;;;;;;;56.13;25.77;;;3.00;99.90;;;;;;4993547;28;20026;-82
2022/03/30 01:46:55;;;;;;;54.70;26.98;;;2.90;99.90;;;;;;4993622;28;20030;-82
2022/03/30 01:49:21;;;;;;;50.67;25.80;;;2.80;99.90;;;;;;4993595;28;20034;-82
2022/03/30 01:51:50;;;;;;;48.90;25.23;;;2.80;99.90;;;;;;4993528;28;20057;-82
2022/03/30 01:54:20;;;;;;;49.28;26.08;;;2.80;99.90;;;;;;4993562;28;20023;-82
2022/03/30 01:56:46;;;;;;;54.05;24.67;;;2.80;99.90;;;;;;4993653;28;20077;-82
2022/03/30 01:59:12;;;;;;;49.78;26.00;;;2.70;99.90;;;;;;4993696;28;20423;-82
2022/03/30 02:01:38;;;;;;;52.45;26.17;;;2.70;99.90;;;;;;4992230;28;20029;-82
2022/03/30 02:04:06;;;;;;;50.55;26.80;;;2.70;99.90;;;;;;4993268;28;20045;-82
2022/03/30 02:06:32;;;;;;;47.50;24.55;;;2.60;99.90;;;;;;4993639;28;20030;-83
2022/03/30 02:08:58;;;;;;;46.92;23.52;;;2.60;99.90;;;;;;5008547;28;20125;-82
2022/03/30 02:11:24;;;;;;;50.63;25.83;;;2.50;99.90;;;;;;4993483;28;20077;-82
2022/03/30 02:13:50;;;;;;;55.38;24.40;;;2.50;99.90;;;;;;4993093;28;20050;-82
2022/03/30 02:16:16;;;;;;;49.28;25.25;;;2.40;99.90;;;;;;4993049;28;20096;-82
2022/03/30 02:18:42;;;;;;;53.75;26.35;;;2.40;99.90;;;;;;4993434;28;20086;-82
2022/03/30 02:21:07;;;;;;;55.92;28.00;;;2.30;99.90;;;;;;4993560;28;20022;-83
2022/03/30 02:23:33;;;;;;;53.15;26.77;;;2.20;99.90;;;;;;4993280;28;20113;-82
2022/03/30 02:25:58;;;;;;;55.97;26.00;;;2.30;99.90;;;;;;4993225;28;20089;-82
2022/03/30 02:28:24;;;;;;;51.20;28.13;;;2.20;99.90;;;;;;4992997;28;20425;-82
2022/03/30 02:30:49;;;;;;;101.63;48.38;;;2.20;99.90;;;;;;4993447;28;20101;-83
2022/03/30 02:33:15;;;;;;;69.78;37.03;;;2.20;99.90;;;;;;4993288;28;20058;-82
2022/03/30 02:35:41;;;;;;;59.65;29.52;;;2.10;99.90;;;;;;4993401;28;20026;-82
2022/03/30 02:38:06;;;;;;;61.85;29.77;;;2.10;99.90;;;;;;4993018;28;20026;-82
2022/03/30 02:40:32;;;;;;;60.80;30.08;;;2.00;99.90;;;;;;4991984;28;20026;-82
2022/03/30 02:42:58;;;;;;;49.15;28.40;;;2.00;99.90;;;;;;4993159;28;20029;-82
2022/03/30 02:45:23;;;;;;;53.60;26.10;;;1.90;99.90;;;;;;4993084;28;20030;-81
2022/03/30 02:50:33;;;;;;;36.10;20.05;;;1.90;99.90;;;;;;4996821;28;20030;-81
2022/03/30 02:52:59;;;;;;;42.80;22.63;;;1.90;99.90;;;;;;4996695;28;20019;-82
2022/03/30 02:55:24;;;;;;;34.17;19.25;;;1.80;99.90;;;;;;4996541;28;20058;-82
2022/03/30 02:57:50;;;;;;;47.53;25.30;;;1.80;99.90;;;;;;4995444;28;20054;-82
2022/03/30 03:00:16;;;;;;;59.58;31.58;;;1.80;99.90;;;;;;4996510;28;20179;-82
2022/03/30 03:02:42;;;;;;;74.13;35.25;;;1.70;99.90;;;;;;4996348;28;20423;-82
2022/03/30 03:05:08;;;;;;;66.00;31.33;;;1.70;99.90;;;;;;4996572;28;20041;-82
2022/03/30 03:07:33;;;;;;;72.57;34.10;;;1.70;99.90;;;;;;4996388;28;20480;-82
2022/03/30 03:09:59;;;;;;;61.05;31.58;;;1.80;99.90;;;;;;4996488;28;20384;-82
2022/03/30 03:12:25;;;;;;;61.60;30.45;;;1.80;99.90;;;;;;4996224;28;20034;-82
2022/03/30 03:14:50;;;;;;;47.08;26.90;;;1.80;99.90;;;;;;4995946;28;20447;-81
2022/03/30 03:17:16;;;;;;;55.97;26.23;;;1.70;99.90;;;;;;4996230;28;20054;-82
2022/03/30 03:19:42;;;;;;;51.63;27.00;;;1.70;99.90;;;;;;4995241;28;20387;-82
2022/03/30 03:22:08;;;;;;;40.55;22.77;;;1.70;99.90;;;;;;4996056;28;20026;-82
2022/03/30 03:24:33;;;;;;;42.08;21.88;;;1.60;99.90;;;;;;4994761;28;20041;-83
2022/03/30 03:26:59;;;;;;;48.80;24.65;;;1.50;99.90;;;;;;4996123;28;20034;-82
2022/03/30 03:29:26;;;;;;;53.63;28.05;;;1.50;99.90;;;;;;4995825;28;20022;-82
2022/03/30 03:31:51;;;;;;;65.30;30.23;;;1.50;99.90;;;;;;5003126;28;20025;-82
2022/03/30 03:34:17;;;;;;;63.10;30.52;;;1.50;99.90;;;;;;5014152;28;20430;-82
2022/03/30 03:36:43;;;;;;;65.82;32.25;;;1.50;99.90;;;;;;5015477;28;20045;-82
2022/03/30 03:39:09;;;;;;;55.22;30.83;;;1.40;99.90;;;;;;5015131;28;20026;-82
2022/03/30 03:41:34;;;;;;;67.25;32.03;;;1.50;99.90;;;;;;5015444;28;20081;-82
2022/03/30 03:44:00;;;;;;;67.20;31.67;;;1.50;99.90;;;;;;5015287;28;20042;-82
2022/03/30 03:46:26;;;;;;;60.65;31.88;;;1.50;99.90;;;;;;5015149;28;20388;-82
2022/03/30 03:48:51;;;;;;;59.88;28.70;;;1.50;99.90;;;;;;5015181;28;20084;-81
2022/03/30 03:51:17;;;;;;;57.67;31.60;;;1.50;99.90;;;;;;5014171;28;20456;-81
2022/03/30 03:53:43;;;;;;;65.55;31.25;;;1.50;99.90;;;;;;5015042;28;20044;-82
2022/03/30 03:56:08;;;;;;;64.43;32.33;;;1.50;99.90;;;;;;5015140;28;20084;-82
2022/03/30 03:58:34;;;;;;;62.20;32.53;;;1.50;99.90;;;;;;5014808;28;20471;-82
2022/03/30 04:00:59;;;;;;;61.72;32.97;;;1.50;99.90;;;;;;5015092;28;20026;-82
2022/03/30 04:03:25;;;;;;;65.47;32.75;;;1.50;99.90;;;;;;5014800;28;20104;-82
2022/03/30 04:05:50;;;;;;;57.47;28.77;;;1.50;99.90;;;;;;5015101;28;20089;-81
2022/03/30 04:08:16;;;;;;;59.60;30.67;;;1.50;99.90;;;;;;5014913;28;20438;-82
2022/03/30 04:10:42;;;;;;;59.33;28.55;;;1.60;99.90;;;;;;5014910;28;20428;-82
2022/03/30 04:13:09;;;;;;;62.97;31.80;;;1.50;99.90;;;;;;5014729;28;20026;-81
2022/03/30 04:15:35;;;;;;;62.15;30.38;;;1.50;99.90;;;;;;5014598;28;20141;-82
2022/03/30 04:18:03;;;;;;;54.38;27.25;;;1.50;99.90;;;;;;5015104;28;20033;-82
2022/03/30 04:20:29;;;;;;;49.75;25.35;;;1.50;99.90;;;;;;5013374;28;20025;-82
2022/03/30 04:22:55;;;;;;;56.42;27.00;;;1.50;99.90;;;;;;5014534;28;20034;-82
2022/03/30 04:25:20;;;;;;;60.28;31.67;;;1.60;99.90;;;;;;5014497;28;20034;-82
2022/03/30 04:27:48;;;;;;;46.08;23.52;;;1.50;99.90;;;;;;5014311;28;20029;-82
2022/03/30 04:30:15;;;;;;;40.13;22.40;;;1.50;99.90;;;;;;5014393;28;20022;-81
2022/03/30 04:32:40;;;;;;;38.53;20.35;;;1.50;99.90;;;;;;5014516;28;20030;-81
2022/03/30 04:35:07;;;;;;;44.05;22.42;;;1.50;99.90;;;;;;5014288;28;20387;-81
2022/03/30 04:37:32;;;;;;;40.85;21.77;;;1.40;99.90;;;;;;5014253;28;20018;-82
2022/03/30 04:39:58;;;;;;;42.08;21.33;;;1.40;99.90;;;;;;5012492;28;20026;-81
2022/03/30 04:42:23;;;;;;;39.70;21.08;;;1.30;99.90;;;;;;4994623;28;20484;-81
2022/03/30 04:44:49;;;;;;;42.88;20.98;;;1.40;99.90;;;;;;4994471;28;20118;-81
2022/03/30 04:47:15;;;;;;;42.45;20.70;;;1.30;99.90;;;;;;4993384;28;20464;-81
2022/03/30 04:49:41;;;;;;;37.45;19.23;;;1.40;99.90;;;;;;4994488;28;20049;-82
2022/03/30 04:52:07;;;;;;;42.00;20.15;;;1.40;99.90;;;;;;5009747;28;20464;-82
2022/03/30 04:54:33;;;;;;;35.55;19.88;;;1.40;99.90;;;;;;5014248;28;20133;-82
2022/03/30 04:56:59;;;;;;;45.15;20.33;;;1.50;99.90;;;;;;4994371;28;20193;-81
2022/03/30 04:59:25;;;;;;;44.28;22.38;;;1.50;99.90;;;;;;4972359;28;20034;-82
2022/03/30 05:01:50;;;;;;;46.67;23.02;;;1.50;99.90;;;;;;4988814;28;20045;-82
2022/03/30 05:04:16;;;;;;;43.08;20.65;;;1.60;99.90;;;;;;4991495;28;20073;-82
2022/03/30 05:06:41;;;;;;;48.38;23.25;;;1.60;99.90;;;;;;5000921;28;20754;-81
2022/03/30 05:09:07;;;;;;;42.13;24.38;;;1.60;99.90;;;;;;5011422;28;20084;-81
2022/03/30 05:11:32;;;;;;;50.58;23.23;;;1.70;99.90;;;;;;5012108;28;20483;-82
2022/03/30 05:13:58;;;;;;;39.95;22.33;;;1.70;99.90;;;;;;5012074;28;20053;-82
2022/03/30 05:16:24;;;;;;;48.50;24.67;;;1.80;99.90;;;;;;5012662;28;20487;-82
2022/03/30 05:18:49;;;;;;;40.60;23.05;;;1.80;99.90;;;;;;5009064;28;20029;-82
2022/03/30 05:21:15;;;;;;;37.80;22.88;;;1.90;99.90;;;;;;5010992;28;20057;-81
2022/03/30 05:23:40;;;;;;;47.80;22.20;;;1.90;99.90;;;;;;4990575;28;20054;-81
2022/03/30 05:26:06;;;;;;;55.05;27.42;;;2.00;99.90;;;;;;4992111;28;20484;-81
2022/03/30 05:28:31;;;;;;;65.32;33.35;;;2.00;99.90;;;;;;4992232;28;20434;-82
2022/03/30 05:30:57;;;;;;;70.00;31.77;;;2.10;99.90;;;;;;4991070;28;20042;-81
2022/03/30 05:33:23;;;;;;;64.38;31.75;;;2.20;99.90;;;;;;4991697;28;20034;-81
2022/03/30 05:35:50;;;;;;;67.05;33.50;;;2.20;99.90;;;;;;4991147;28;20042;-81
2022/03/30 05:38:16;;;;;;;61.15;32.33;;;2.30;99.90;;;;;;4992904;28;20033;-80
2022/03/30 05:40:42;;;;;;;60.88;28.83;;;2.30;99.90;;;;;;4992599;28;20123;-81
2022/03/30 05:43:08;;;;;;;58.10;29.33;;;2.40;99.90;;;;;;5009220;28;20022;-81
2022/03/30 05:45:34;;;;;;;55.08;29.13;;;2.50;99.90;;;;;;5013079;28;20515;-81
2022/03/30 05:48:00;;;;;;;57.13;29.08;;;2.50;99.90;;;;;;5009910;28;20065;-81
2022/03/30 05:50:26;;;;;;;57.55;29.55;;;2.60;99.90;;;;;;5003211;28;20030;-82
2022/03/30 05:52:52;;;;;;;63.35;28.80;;;2.60;99.90;;;;;;5002089;28;20427;-81
2022/03/30 05:55:17;;;;;;;167.57;64.13;;;2.80;99.90;;;;;;5003346;28;20076;-82
2022/03/30 05:57:43;;;;;;;174.38;67.97;;;2.80;99.90;;;;;;5002065;28;20079;-82
2022/03/30 06:00:10;;;;;;;230.10;84.80;;;2.80;99.90;;;;;;4999707;28;20794;-82
2022/03/30 06:02:37;;;;;;;132.80;54.95;;;2.90;99.90;;;;;;5007626;28;20026;-81
2022/03/30 06:05:03;;;;;;;100.82;43.25;;;3.00;99.90;;;;;;5003128;28;20045;-81
2022/03/30 06:07:29;;;;;;;102.15;44.58;;;3.10;99.90;;;;;;5010472;28;20037;-81
2022/03/30 06:09:55;;;;;;;138.95;65.40;;;3.20;99.90;;;;;;5009578;28;20387;-81
2022/03/30 06:12:23;;;;;;;103.70;46.28;;;3.40;99.90;;;;;;5011322;28;20018;-81
2022/03/30 06:14:49;;;;;;;79.68;38.78;;;3.40;99.90;;;;;;5012670;28;20046;-81
2022/03/30 06:17:17;;;;;;;75.88;37.17;;;3.40;99.90;;;;;;5013004;28;20079;-82
2022/03/30 06:19:45;;;;;;;80.00;41.75;;;3.60;99.90;;;;;;5012981;28;20370;-82
2022/03/30 06:22:11;;;;;;;86.10;41.80;;;3.80;99.90;;;;;;5013774;28;20026;-81
2022/03/30 06:24:38;;;;;;;85.68;40.03;;;4.00;99.90;;;;;;5016622;28;20026;-82
2022/03/30 06:27:06;;;;;;;86.72;40.42;;;4.20;99.90;;;;;;5016817;28;20021;-81
2022/03/30 06:29:32;;;;;;;87.97;41.70;;;4.30;99.90;;;;;;5016751;28;20116;-81
2022/03/30 06:31:58;;;;;;;96.18;44.40;;;4.50;99.90;;;;;;5016548;28;20116;-82
2022/03/30 06:34:24;;;;;;;92.32;44.63;;;4.70;99.90;;;;;;5016519;28;20476;-82
2022/03/30 06:36:49;;;;;;;84.00;38.35;;;4.90;99.90;;;;;;5016585;28;20053;-82
2022/03/30 06:39:15;;;;;;;91.97;41.72;;;5.00;99.90;;;;;;5016484;28;20357;-81
2022/03/30 06:41:42;;;;;;;83.00;39.58;;;5.20;99.90;;;;;;5016555;28;20061;-82
2022/03/30 06:44:08;;;;;;;84.05;40.38;;;5.30;99.90;;;;;;5016306;28;20076;-81
2022/03/30 06:46:38;;;;;;;86.43;42.15;;;5.50;99.90;;;;;;5016559;28;20022;-81
2022/03/30 06:49:07;;;;;;;73.22;37.25;;;5.70;99.90;;;;;;5016361;28;20482;-81
2022/03/30 06:51:33;;;;;;;67.43;32.30;;;5.80;99.90;;;;;;5016439;28;20026;-81
2022/03/30 06:53:59;;;;;;;69.22;33.63;;;6.00;99.90;;;;;;5016327;28;20443;-81
2022/03/30 06:56:25;;;;;;;64.28;32.45;;;6.20;99.90;;;;;;5016247;28;20084;-82
2022/03/30 06:58:51;;;;;;;61.13;30.88;;;6.40;99.90;;;;;;5016220;28;20022;-82
2022/03/30 07:01:17;;;;;;;58.97;29.38;;;6.50;97.10;;;;;;5016529;28;20101;-82
2022/03/30 07:03:43;;;;;;;62.50;31.23;;;6.60;93.50;;;;;;5015914;28;20097;-82
2022/03/30 07:06:08;;;;;;;63.67;32.60;;;6.70;93.40;;;;;;5016052;28;20025;-82
2022/03/30 07:11:18;;;;;;;114.63;58.70;;;7.00;94.90;;;;;;5016177;28;20451;-82
2022/03/30 07:13:44;;;;;;;120.45;64.82;;;7.30;97.10;;;;;;5015627;28;20018;-81
2022/03/30 07:16:10;;;;;;;80.97;43.05;;;7.40;93.80;;;;;;5016021;28;20022;-82
2022/03/30 07:18:36;;;;;;;76.18;37.83;;;7.50;92.90;;;;;;5015906;28;20100;-82
2022/03/30 07:21:01;;;;;;;68.63;37.28;;;7.70;92.60;;;;;;5015708;28;20426;-82
2022/03/30 07:23:27;;;;;;;70.03;39.38;;;7.80;91.80;;;;;;5015743;28;20411;-81
2022/03/30 07:25:53;;;;;;;75.22;39.10;;;7.80;89.50;;;;;;5015920;28;20080;-82
2022/03/30 07:28:19;;;;;;;69.03;38.65;;;7.90;84.90;;;;;;5014622;28;20018;-82
2022/03/30 07:30:48;;;;;;;64.00;34.78;;;7.90;82.60;;;;;;5015659;28;20021;-83
2022/03/30 07:33:15;;;;;;;61.38;32.80;;;8.10;82.20;;;;;;5015033;28;20033;-81
2022/03/30 07:35:46;;;;;;;69.10;35.75;;;8.30;82.90;;;;;;5015551;28;20479;-82
2022/03/30 07:38:15;;;;;;;60.42;30.75;;;8.50;85.70;;;;;;5015472;28;20030;-82
2022/03/30 07:40:42;;;;;;;65.35;34.38;;;8.60;82.30;;;;;;5015489;28;20480;-82
2022/03/30 07:43:08;;;;;;;57.70;32.55;;;8.70;79.20;;;;;;5015152;28;20030;-82
2022/03/30 07:45:34;;;;;;;58.80;34.15;;;8.90;76.00;;;;;;5015144;28;20173;-82
2022/03/30 07:48:00;;;;;;;49.88;25.20;;;8.80;75.00;;;;;;5015129;28;20040;-81
2022/03/30 07:50:26;;;;;;;59.92;31.02;;;8.90;74.90;;;;;;5015033;28;20030;-82
2022/03/30 07:52:52;;;;;;;47.15;23.63;;;9.10;73.80;;;;;;5015429;28;20129;-82
2022/03/30 07:55:18;;;;;;;36.35;21.05;;;9.10;68.80;;;;;;5015048;28;20025;-82
2022/03/30 07:57:44;;;;;;;47.58;26.02;;;9.00;65.90;;;;;;5014967;28;20026;-82
2022/03/30 08:00:18;;;;;;;50.83;27.90;;;9.10;67.50;;;;;;5013875;28;20022;-82
2022/03/30 08:02:47;;;;;;;44.58;22.92;;;9.00;67.70;;;;;;5014861;28;20114;-82
2022/03/30 08:05:14;;;;;;;29.02;16.73;;;9.00;66.00;;;;;;5014900;28;20038;-82
2022/03/30 08:07:44;;;;;;;28.50;16.90;;;9.00;62.80;;;;;;5013176;28;20042;-81
2022/03/30 08:10:10;;;;;;;30.05;16.48;;;9.10;60.70;;;;;;4995564;28;20027;-84
2022/03/30 08:12:38;;;;;;;50.60;25.35;;;9.20;60.80;;;;;;4995281;28;20105;-84
2022/03/30 08:15:05;;;;;;;27.77;16.58;;;9.40;61.30;;;;;;4995118;28;20077;-84
2022/03/30 08:17:30;;;;;;;37.33;19.67;;;9.50;61.00;;;;;;4994932;28;20065;-84
2022/03/30 08:19:57;;;;;;;37.58;19.65;;;9.60;61.50;;;;;;4993918;28;20488;-82
2022/03/30 08:22:26;;;;;;;37.63;18.13;;;9.60;61.60;;;;;;4994929;28;20037;-82
2022/03/30 08:24:53;;;;;;;32.90;18.80;;;9.80;60.70;;;;;;4994895;28;20042;-82
2022/03/30 08:27:21;;;;;;;47.47;24.95;;;9.90;60.90;;;;;;4995031;28;20046;-82
2022/03/30 08:29:48;;;;;;;38.38;19.83;;;10.00;60.10;;;;;;4993929;28;20022;-82
2022/03/30 08:32:15;;;;;;;34.05;19.05;;;10.10;60.20;;;;;;4995080;28;20443;-82
2022/03/30 08:34:41;;;;;;;30.23;16.90;;;10.10;58.30;;;;;;4993516;28;20046;-82
2022/03/30 08:37:08;;;;;;;44.38;19.80;;;10.00;56.80;;;;;;4994385;28;20464;-81
2022/03/30 08:39:35;;;;;;;36.75;15.65;;;10.20;57.60;;;;;;4994838;28;20030;-82
2022/03/30 08:42:05;;;;;;;25.30;13.35;;;10.20;56.20;;;;;;5009678;28;20027;-82
2022/03/30 08:44:32;;;;;;;26.88;15.23;;;10.20;55.00;;;;;;4993920;28;20117;-82
2022/03/30 08:46:58;;;;;;;27.67;15.60;;;10.00;54.30;;;;;;4994528;28;20034;-82
2022/03/30 08:49:26;;;;;;;30.45;15.90;;;10.30;55.40;;;;;;4994901;28;20473;-83
2022/03/30 08:51:54;;;;;;;51.05;25.38;;;10.40;54.70;;;;;;4994532;28;20029;-82
2022/03/30 08:54:20;;;;;;;30.48;18.38;;;10.70;55.10;;;;;;4994423;28;20113;-82
2022/03/30 08:56:47;;;;;;;26.17;16.00;;;10.90;56.40;;;;;;4994535;28;20110;-83
2022/03/30 08:59:18;;;;;;;31.45;18.20;;;11.00;55.00;;;;;;4994300;28;20057;-83
2022/03/30 09:01:44;;;;;;;32.67;17.27;;;11.40;56.10;;;;;;4994445;28;20088;-83
2022/03/30 09:04:12;;;;;;;30.23;17.75;;;11.50;54.30;;;;;;4993975;28;20041;-83
2022/03/30 09:06:53;;;;;;;30.67;15.90;;;11.60;53.10;;;;;;4994552;28;20062;-82
2022/03/30 09:09:30;;;;;;;27.98;17.05;;;11.60;53.40;;;;;;4993036;28;20026;-82
2022/03/30 09:11:56;;;;;;;30.05;17.20;;;11.70;54.50;;;;;;4994439;28;20033;-82
2022/03/30 09:14:31;;;;;;;34.25;19.40;;;11.80;54.60;;;;;;4992686;28;20435;-83
2022/03/30 09:17:00;;;;;;;31.23;17.15;;;11.90;54.80;;;;;;4994006;28;20022;-83
2022/03/30 09:19:27;;;;;;;30.30;18.05;;;12.00;54.20;;;;;;4994220;28;20022;-83
2022/03/30 09:21:55;;;;;;;35.10;18.80;;;12.00;55.00;;;;;;4993838;28;20113;-83
2022/03/30 09:24:23;;;;;;;30.30;18.83;;;12.10;54.70;;;;;;4993677;28;20373;-83
2022/03/30 09:26:53;;;;;;;33.30;18.05;;;12.00;54.00;;;;;;4993757;28;20161;-83
2022/03/30 09:29:20;;;;;;;31.63;18.73;;;12.00;53.60;;;;;;4993982;28;20026;-83
2022/03/30 09:31:48;;;;;;;34.25;19.40;;;11.70;53.80;;;;;;4992430;28;20109;-83
2022/03/30 09:34:14;;;;;;;33.70;18.95;;;11.70;53.90;;;;;;4993919;28;20034;-83
2022/03/30 09:36:41;;;;;;;30.55;17.40;;;11.80;55.40;;;;;;4993827;28;20027;-83
2022/03/30 09:39:26;;;;;;;28.85;15.98;;;11.90;53.90;;;;;;4993748;28;20030;-83
2022/03/30 09:41:53;;;;;;;29.75;17.23;;;11.60;52.20;;;;;;4993783;28;20036;-83
2022/03/30 09:44:20;;;;;;;29.80;16.67;;;11.30;52.60;;;;;;4993779;28;20030;-83
2022/03/30 09:46:57;;;;;;;24.75;16.27;;;11.30;52.50;;;;;;4992340;28;20058;-83
2022/03/30 09:49:39;;;;;;;28.75;17.40;;;11.10;52.30;;;;;;4993528;28;20361;-83
2022/03/30 09:52:23;;;;;;;28.33;17.10;;;11.20;53.10;;;;;;4993784;28;20365;-83
2022/03/30 09:54:53;;;;;;;32.53;17.95;;;11.30;53.60;;;;;;4993595;28;20110;-83
2022/03/30 09:57:39;;;;;;;31.42;18.65;;;11.50;54.00;;;;;;4998520;28;20026;-82
2022/03/30 10:00:10;;;;;;;26.30;15.68;;;11.60;54.40;;;;;;5015121;28;20426;-83
2022/03/30 10:02:44;;;;;;;29.00;17.25;;;11.70;54.40;;;;;;5000283;28;20353;-83
2022/03/30 10:05:14;;;;;;;31.63;17.40;;;11.80;53.10;;;;;;4999890;28;20404;-83
2022/03/30 10:07:40;;;;;;;32.10;18.20;;;11.70;53.00;;;;;;5000047;28;20033;-82
2022/03/30 10:10:09;;;;;;;31.50;17.48;;;11.60;52.50;;;;;;5000101;28;20018;-83
2022/03/30 10:12:35;;;;;;;32.88;17.75;;;11.80;53.20;;;;;;4999970;28;20030;-82
2022/03/30 10:15:01;;;;;;;34.75;18.35;;;12.00;52.30;;;;;;4999658;28;20137;-83
2022/03/30 10:17:30;;;;;;;29.95;17.08;;;12.00;51.70;;;;;;4999846;28;20054;-83
2022/03/30 10:19:58;;;;;;;28.60;17.23;;;11.90;51.00;;;;;;4999687;28;20149;-83
2022/03/30 10:22:54;;;;;;;32.42;18.20;;;11.90;51.20;;;;;;5000014;28;20101;-83
2022/03/30 10:25:57;;;;;;;31.20;17.48;;;12.10;52.00;;;;;;4999725;28;20046;-83
2022/03/30 10:28:26;;;;;;;30.88;17.40;;;12.20;51.40;;;;;;4999872;28;20026;-83
2022/03/30 10:30:54;;;;;;;29.05;16.30;;;12.20;50.30;;;;;;4999871;28;20022;-83
2022/03/30 10:33:44;;;;;;;28.65;16.42;;;12.40;49.90;;;;;;4999782;28;20027;-83
2022/03/30 10:36:23;;;;;;;27.10;16.77;;;12.50;50.40;;;;;;4999828;28;20018;-82
2022/03/30 10:39:07;;;;;;;35.30;19.23;;;12.50;49.10;;;;;;4999668;28;20026;-83
2022/03/30 10:41:52;;;;;;;33.75;18.75;;;12.40;49.00;;;;;;4999755;28;20527;-82
2022/03/30 10:44:41;;;;;;;34.08;18.85;;;12.30;49.90;;;;;;4999410;28;20492;-83
2022/03/30 10:47:13;;;;;;;30.70;18.23;;;12.40;49.70;;;;;;4998780;28;20356;-83
2022/03/30 10:49:42;;;;;;;37.33;21.25;;;12.50;49.30;;;;;;5000070;28;20029;-83
2022/03/30 10:52:37;;;;;;;38.30;21.13;;;12.60;50.20;;;;;;4999688;28;20048;-82
2022/03/30 10:55:12;;;;;;;28.23;17.23;;;12.50;50.40;;;;;;4999623;28;20022;-83
2022/03/30 10:57:57;;;;;;;28.95;17.55;;;12.70;50.10;;;;;;4998406;28;20030;-83
2022/03/30 11:00:25;;;;;;;31.77;19.73;;;12.70;48.00;;;;;;4998399;28;20041;-83
2022/03/30 11:02:51;;;;;;;31.98;19.42;;;12.50;48.20;;;;;;4998143;28;20026;-82
2022/03/30 11:05:27;;;;;;;35.08;20.00;;;12.60;49.40;;;;;;4999468;28;20530;-83
2022/03/30 11:07:53;;;;;;;37.40;20.13;;;12.60;48.90;;;;;;5013092;28;20093;-83
2022/03/30 11:10:27;;;;;;;38.30;21.48;;;12.60;49.70;;;;;;4996539;28;20029;-83
2022/03/30 11:13:11;;;;;;;33.33;20.30;;;12.60;50.30;;;;;;4996404;28;20018;-83
2022/03/30 11:15:59;;;;;;;33.65;20.98;;;12.70;51.10;;;;;;4995385;28;20519;-83
2022/03/30 11:18:26;;;;;;;37.20;20.15;;;12.70;51.30;;;;;;4995367;28;20487;-83
2022/03/30 11:21:22;;;;;;;34.60;19.33;;;12.60;50.50;;;;;;4996359;28;20026;-84
2022/03/30 11:24:03;;;;;;;32.35;19.60;;;12.60;49.90;;;;;;4996299;28;20053;-83
2022/03/30 11:26:47;;;;;;;33.30;19.77;;;12.70;50.40;;;;;;4995009;28;20026;-83
2022/03/30 11:29:41;;;;;;;31.08;18.30;;;12.70;49.90;;;;;;4996304;28;20030;-83
2022/03/30 11:32:39;;;;;;;34.38;19.20;;;12.80;50.00;;;;;;4996056;28;20100;-83
2022/03/30 11:35:09;;;;;;;35.80;20.42;;;12.90;50.00;;;;;;4992063;28;20480;-83
2022/03/30 11:37:44;;;;;;;39.25;21.42;;;12.70;48.50;;;;;;4996068;28;20026;-83
2022/03/30 11:40:13;;;;;;;30.48;17.77;;;12.80;48.40;;;;;;4992900;28;20057;-83
2022/03/30 11:42:43;;;;;;;32.42;18.83;;;13.00;48.60;;;;;;4994648;28;20097;-82
2022/03/30 11:45:20;;;;;;;30.90;17.20;;;13.20;48.70;;;;;;4994464;28;20030;-83
2022/03/30 11:47:58;;;;;;;25.17;16.42;;;13.20;47.60;;;;;;4992995;28;20061;-83
2022/03/30 11:50:36;;;;;;;28.58;16.55;;;13.20;48.30;;;;;;5004665;28;20025;-83
2022/03/30 11:53:10;;;;;;;26.65;16.10;;;13.30;48.20;;;;;;4974675;28;20059;-83
2022/03/30 11:55:54;;;;;;;29.58;16.23;;;13.30;47.60;;;;;;4974733;28;20444;-83
2022/03/30 11:58:31;;;;;;;28.23;15.88;;;13.30;46.30;;;;;;4974742;28;20397;-83
2022/03/30 12:00:59;;;;;;;28.10;16.52;;;13.20;46.10;;;;;;4975292;28;20023;-83
2022/03/30 12:03:25;;;;;;;26.15;16.52;;;13.20;46.10;;;;;;4974203;28;20090;-81
2022/03/30 12:05:58;;;;;;;26.92;16.80;;;13.00;46.10;;;;;;4978040;28;20112;-83
2022/03/30 12:08:24;;;;;;;;;;;13.00;46.10;;;;;;4987610;28;20405;-84
2022/03/30 12:10:53;;;;;;;24.55;14.85;;;13.00;46.20;;;;;;4989532;28;19906;-83
2022/03/30 12:13:23;;;;;;;27.40;15.88;;;12.70;46.00;;;;;;4975416;28;20033;-82
2022/03/30 12:16:03;;;;;;;29.77;16.63;;;12.50;46.20;;;;;;4974399;28;20090;-82
2022/03/30 12:18:30;;;;;;;26.35;15.32;;;12.30;47.40;;;;;;4974625;28;20489;-82
2022/03/30 12:21:02;;;;;;;27.55;14.43;;;12.20;47.20;;;;;;4973128;28;20042;-83
2022/03/30 12:23:31;;;;;;;26.75;14.25;;;12.00;47.00;;;;;;4973921;28;20054;-82
2022/03/30 12:25:57;;;;;;;25.50;15.02;;;11.80;47.10;;;;;;4990902;28;20404;-83
2022/03/30 12:28:33;;;;;;;26.08;15.23;;;11.40;48.00;;;;;;4993656;28;20037;-83
2022/03/30 12:31:00;;;;;;;26.27;15.65;;;11.30;48.40;;;;;;4990847;28;20072;-82
2022/03/30 12:33:26;;;;;;;30.95;14.88;;;11.30;48.40;;;;;;4993358;28;20033;-82
2022/03/30 12:35:52;;;;;;;28.60;15.52;;;11.30;48.60;;;;;;4992919;28;20035;-83
2022/03/30 12:38:21;;;;;;;111.75;59.47;;;11.40;49.10;;;;;;5009507;28;20025;-81
2022/03/30 12:40:52;;;;;;;43.78;25.75;;;11.40;48.60;;;;;;4995853;28;20034;-83
2022/03/30 12:43:27;;;;;;;50.10;28.73;;;11.40;48.70;;;;;;5010496;28;20024;-82
2022/03/30 12:45:59;;;;;;;46.22;25.45;;;11.40;48.40;;;;;;4997533;28;20038;-83
2022/03/30 12:48:29;;;;;;;;;;;11.50;48.80;;;;;;5004546;28;20585;-82
2022/03/30 12:50:59;;;;;;;22.33;14.00;;;11.60;48.50;;;;;;5000838;28;19905;-82